East McKeesport, PA

2:22 PM EDT on September 16, 2014 (GMT -0400)
Pittsburgh International | Change Station
CLOSE
Current Station
Airport
Location: Pittsburgh,
Elevation: 1201 ft
Nearby Weather Stations

Elev 1201 ft 40.48 °N, 80.21 °W | Updated 31 minutes ago

Mostly Cloudy
Mostly Cloudy
64 °F
Feels Like 64 °F
N
7
Wind Variable Wind from North

Today
High -- | Low -- °F
--% Chance of Precip.
Yesterday
High -- | Low -- °F
Precip. -- in
7:00 AM 7:26 PM
Last Quarter, 43% visible
Pressure 30.12 in
Visibility 10.0 miles
Clouds Few 3200 ft
Scattered Clouds 4800 ft
Mostly Cloudy 6000 ft
Dew Point 51 °F
Humidity 63%
Rainfall 0.13 in
Snow Depth Not available.
UV 4 out of 12
Pollen 3.30 out of 12
Ozone Good
PM2.5 Good
Flu Activity Not available.
METAR KPIT 161751Z 35006KT 10SM FEW032 SCT048 BKN060 18/11 A3010 RMK AO2 SLP198 T01780106 10178 20122 58009

More Conditions Fewer Conditions

Pressure 30.12 in
Visibility 10.0 miles
Clouds Few 3200 ft
Scattered Clouds 4800 ft
Mostly Cloudy 6000 ft
Dew Point 51 °F
Humidity 63%
Rainfall 0.13 in
Snow Depth Not available.
UV 4 out of 12
Pollen 3.30 out of 12
Ozone Good
PM2.5 Good
Flu Activity Not available.
METAR KPIT 161751Z 35006KT 10SM FEW032 SCT048 BKN060 18/11 A3010 RMK AO2 SLP198 T01780106 10178 20122 58009

More Conditions Fewer Conditions

10-Day Weather Forecast

Almanac

Astronomy

Sep. 16, 2014 Rise Set
Actual Time 7:00 AM EDT 7:26 PM EDT
Civil Twilight 6:33 AM EDT 7:53 PM EDT
Nautical Twilight 6:01 AM EDT 8:25 PM EDT
Astronomical Twilight 5:28 AM EDT 8:58 PM EDT
Moon 12:08 AM EDT 2:49 PM EDT
Length of Visible Light 13h 20m
Length of Day
12h 25m
Tomorrow will be 2m 39s shorter.
Last Quarter, 43% of the Moon is Illuminated
Today
Last Quarter
Sep 24
New
Oct 1
First Quarter
Oct 8
Full
Oct 15
Last Quarter

Today's Extremes

State Highs State Lows

Community

WunderPhotos

Upload Photos

1,753,852 photos uploaded!

WunderBlogs® & News

Nearby

Air Quality

  Air Quality AQ Index Pollutant
Yesterday Moderate
PM2.5
Yesterday Good
OZONE
Current Good
PM2.5
Current Good
OZONE
Tuesday Good
PM2.5
Wednesday Good
PM2.5

Snow Depth

Station Depth Elevation
No new snow has been reported.

Earthquake Activity

City Distance Mag. Time & Date
No recent earthquake activity has been reported nearby.
Minimum magnitude displayed is 2.5.

Coastal Water Temperatures

Place Temperature
No Stations Reporting

Nearby Weather Stations